Whitcomb, Wisconsin
Current Conditions -  °F | °C
As of 1:55 AM on Friday 24 Oct 2014 (Local Time) from KCLI Reporting Station
Haze Haze  
Wind Chill: 46°   Ceiling: 500
Heat Index: 46°   Visibility: 3mi
Dew Point: 45°   Wind: 0mph
Humidity: 93%   Direction: NA
Pressure: 30.02"   Gusts: NA
Location:  44.7254°N, 89.0642°W
Report Text: KCLI 240655Z AUTO 00000KT 3SM BR BKN005 OVC014 08/07 A3002 RMK AO2
Loading
Personal Weather Stations






























Interactive Weather Map
Tropical Storm Tracking
New forecast layout! Learn more

10-Day Weather Forecast

Advertisements
Track Severe Weather on mobile